Time;durP1;ratioP1;P1;durP2;ratioP2;P2;SDS_P1;SDS_P2;PMS_P1;PMS_P2;Temp;Humidity;BMP_temperature;BMP_pressure;BME280_temperature;BME280_humidity;BME280_pressure;Samples;Min_cycle;Max_cycle;Signal;HPM_P1;HPM_P2
2022/04/22 00:00:19;;;;;;;6.70;4.43;;;;;;;3.65;100.00;100569.22;5018624;28;20084;-79
2022/04/22 00:02:46;;;;;;;10.03;4.37;;;;;;;3.50;100.00;100568.25;5023895;28;20422;-78
2022/04/22 00:05:17;;;;;;;7.67;3.90;;;;;;;3.23;100.00;100561.97;5033125;28;20095;-79
2022/04/22 00:07:43;;;;;;;7.07;4.43;;;;;;;3.18;100.00;100562.78;5016624;28;20124;-78
2022/04/22 00:10:11;;;;;;;8.43;4.20;;;;;;;3.08;100.00;100557.50;5063297;28;20041;-79
2022/04/22 00:12:40;;;;;;;6.93;4.73;;;;;;;3.12;100.00;100560.16;5017102;28;20037;-79
2022/04/22 00:15:09;;;;;;;9.13;5.37;;;;;;;3.05;100.00;100554.00;5030407;28;20037;-78
2022/04/22 00:17:40;;;;;;;7.47;4.50;;;;;;;3.16;100.00;100560.19;5019330;28;20044;-79
2022/04/22 00:20:09;;;;;;;9.27;4.67;;;;;;;3.18;100.00;100553.22;5015702;28;20045;-79
2022/04/22 00:22:39;;;;;;;9.77;5.13;;;;;;;3.09;100.00;100556.63;5016262;28;20041;-78
2022/04/22 00:25:08;;;;;;;7.30;4.40;;;;;;;3.01;100.00;100558.31;5018918;28;20043;-78
2022/04/22 00:27:36;;;;;;;10.27;5.13;;;;;;;3.03;100.00;100559.22;5030360;28;20038;-79
2022/04/22 00:30:07;;;;;;;6.93;4.57;;;;;;;3.03;100.00;100554.00;5050426;28;20041;-78
2022/04/22 00:32:34;;;;;;;6.73;3.70;;;;;;;2.94;100.00;100553.00;5038233;28;20052;-78
2022/04/22 00:35:04;;;;;;;7.90;4.33;;;;;;;2.92;100.00;100554.75;5032234;28;20047;-78
2022/04/22 00:37:31;;;;;;;12.00;4.90;;;;;;;2.88;100.00;100550.38;5032836;28;20037;-78
2022/04/22 00:40:01;;;;;;;7.17;4.87;;;;;;;2.72;100.00;100547.63;5048167;28;20037;-79
2022/04/22 00:42:28;;;;;;;9.70;5.07;;;;;;;2.73;100.00;100540.66;5066925;28;20048;-78
2022/04/22 00:44:58;;;;;;;6.03;4.57;;;;;;;2.66;100.00;100546.69;5021141;28;20041;-79
2022/04/22 00:47:25;;;;;;;6.73;4.53;;;;;;;2.73;100.00;100551.09;5035574;28;20065;-78
2022/04/22 00:49:55;;;;;;;12.27;4.80;;;;;;;2.87;100.00;100535.59;5020911;28;20049;-78
2022/04/22 00:52:24;;;;;;;9.53;4.70;;;;;;;2.91;100.00;100537.34;5063573;28;20041;-78
2022/04/22 00:54:51;;;;;;;8.67;5.53;;;;;;;2.93;100.00;100535.63;5047303;28;20603;-79
2022/04/22 00:57:18;;;;;;;6.73;4.77;;;;;;;2.93;100.00;100540.84;5031486;28;20068;-79
2022/04/22 00:59:45;;;;;;;13.63;5.37;;;;;;;3.00;100.00;100532.19;5032567;28;20588;-78
2022/04/22 01:02:14;;;;;;;8.90;5.40;;;;;;;2.88;100.00;100527.75;5006123;28;20417;-79
2022/04/22 01:10:12;;;;;;;9.07;4.67;;;;;;;2.76;100.00;100525.91;5047784;28;20049;-78
2022/04/22 01:12:39;;;;;;;7.13;4.77;;;;;;;2.66;100.00;100516.25;5018686;28;20390;-78
2022/04/22 01:15:06;;;;;;;10.47;4.23;;;;;;;2.45;100.00;100522.16;5016903;28;20302;-79
2022/04/22 01:17:33;;;;;;;8.27;5.00;;;;;;;2.49;100.00;100517.81;5049709;28;20037;-79
2022/04/22 01:20:00;;;;;;;8.07;4.67;;;;;;;2.40;100.00;100523.81;5047638;28;20474;-79
2022/04/22 01:22:27;;;;;;;15.03;5.23;;;;;;;2.41;100.00;100517.75;5060089;28;20063;-79
2022/04/22 01:25:02;;;;;;;8.43;4.67;;;;;;;2.40;100.00;100520.34;5025099;28;20300;-78
2022/04/22 01:27:29;;;;;;;10.87;5.53;;;;;;;2.40;100.00;100515.13;5045673;28;20060;-79
2022/04/22 01:29:58;;;;;;;8.93;5.50;;;;;;;2.45;100.00;100503.03;5037966;28;20048;-78
2022/04/22 01:32:30;;;;;;;7.47;5.10;;;;;;;2.53;100.00;100498.75;5014883;28;20055;-79
2022/04/22 01:35:00;;;;;;;11.43;5.30;;;;;;;2.41;100.00;100498.63;5033654;28;20066;-79
2022/04/22 01:37:27;;;;;;;11.03;4.63;;;;;;;2.39;100.00;100505.56;5032019;28;20032;-79
2022/04/22 01:39:54;;;;;;;10.33;5.43;;;;;;;2.35;100.00;100494.22;5031315;28;20049;-78
2022/04/22 01:42:21;;;;;;;9.97;5.00;;;;;;;2.34;100.00;100502.91;5047025;28;20095;-78
2022/04/22 01:44:49;;;;;;;11.20;5.70;;;;;;;2.24;100.00;100501.94;5016623;28;20041;-78
2022/04/22 01:47:17;;;;;;;9.60;5.60;;;;;;;2.38;100.00;100494.25;5020277;28;20564;-80
2022/04/22 01:49:44;;;;;;;10.87;4.80;;;;;;;2.33;100.00;100501.16;5034388;28;20044;-80
2022/04/22 01:52:11;;;;;;;8.17;5.27;;;;;;;2.32;100.00;100502.00;5059226;28;20041;-80
2022/04/22 01:54:38;;;;;;;11.27;6.70;;;;;;;2.36;100.00;100500.34;5018326;28;20041;-79
2022/04/22 01:57:05;;;;;;;10.33;5.20;;;;;;;2.30;100.00;100497.66;5016139;28;20046;-79
2022/04/22 01:59:31;;;;;;;10.20;5.17;;;;;;;2.25;100.00;100493.25;5040901;28;20080;-79
2022/04/22 02:02:05;;;;;;;8.60;4.90;;;;;;;2.29;100.00;100498.50;5035069;28;20049;-80
2022/04/22 02:04:32;;;;;;;9.80;5.77;;;;;;;2.54;100.00;100490.06;5065339;28;20075;-78
2022/04/22 02:07:00;;;;;;;9.50;4.63;;;;;;;2.36;100.00;100496.00;5034832;28;20064;-80
2022/04/22 02:09:27;;;;;;;8.77;4.97;;;;;;;2.44;100.00;100485.63;5016679;28;20067;-79
2022/04/22 02:11:58;;;;;;;12.67;5.37;;;;;;;2.26;100.00;100488.91;5052111;28;20429;-78
2022/04/22 02:14:27;;;;;;;7.43;5.30;;;;;;;2.23;100.00;100486.28;5030484;28;20118;-78
2022/04/22 02:16:55;;;;;;;8.53;5.43;;;;;;;2.34;100.00;100478.56;5033361;28;20082;-78
2022/04/22 02:19:27;;;;;;;10.83;5.13;;;;;;;2.31;100.00;100476.81;5029011;28;20102;-78
2022/04/22 02:21:56;;;;;;;10.10;6.37;;;;;;;2.40;100.00;100466.47;5013866;28;20086;-79
2022/04/22 02:24:23;;;;;;;9.27;5.43;;;;;;;2.28;100.00;100482.00;5076810;28;20040;-78
2022/04/22 02:29:41;;;;;;;11.93;5.80;;;;;;;2.28;100.00;100460.28;5031331;28;20033;-78
2022/04/22 02:32:11;;;;;;;11.93;6.07;;;;;;;2.19;100.00;100461.94;5015720;28;20052;-78
2022/04/22 02:34:40;;;;;;;13.40;8.40;;;;;;;2.40;100.00;100449.94;5020931;28;20528;-78
2022/04/22 02:37:07;;;;;;;9.03;5.37;;;;;;;2.26;100.00;100462.84;5046459;28;20102;-78
2022/04/22 02:39:37;;;;;;;12.80;7.47;;;;;;;2.19;100.00;100474.97;5043853;28;20449;-78
2022/04/22 02:47:34;;;;;;;12.83;6.87;;;;;;;2.28;100.00;100462.88;5049035;28;20056;-78
2022/04/22 02:50:01;;;;;;;9.43;5.90;;;;;;;2.34;100.00;100460.31;5025299;28;20518;-78
2022/04/22 02:52:28;;;;;;;11.23;6.53;;;;;;;2.26;100.00;100455.91;5018882;28;20063;-78
2022/04/22 02:54:54;;;;;;;11.20;6.37;;;;;;;2.33;100.00;100451.63;5033900;28;20106;-78
2022/04/22 02:57:21;;;;;;;11.50;6.70;;;;;;;2.36;100.00;100445.59;5053339;28;20045;-78
2022/04/22 02:59:48;;;;;;;11.77;7.10;;;;;;;2.37;100.00;100450.81;5024761;28;20128;-78
2022/04/22 03:02:15;;;;;;;16.30;7.93;;;;;;;2.39;100.00;100446.47;5020403;28;20045;-78
2022/04/22 03:04:41;;;;;;;14.17;7.33;;;;;;;2.35;100.00;100446.41;5026833;28;20041;-78
2022/04/22 03:07:08;;;;;;;11.90;6.43;;;;;;;2.34;100.00;100448.16;5059947;28;20033;-78
2022/04/22 03:09:36;;;;;;;15.50;7.13;;;;;;;2.32;100.00;100444.66;5034282;28;20041;-78
2022/04/22 03:12:03;;;;;;;10.33;7.53;;;;;;;2.20;100.00;100448.03;5049195;28;20037;-78
2022/04/22 03:14:29;;;;;;;17.57;7.30;;;;;;;2.25;100.00;100446.31;5017044;28;20043;-78
2022/04/22 03:16:56;;;;;;;17.10;7.93;;;;;;;2.24;100.00;100439.38;5020112;28;20041;-78
2022/04/22 03:19:23;;;;;;;15.67;7.70;;;;;;;2.21;100.00;100446.31;5032469;28;20072;-78
2022/04/22 03:21:49;;;;;;;14.07;7.37;;;;;;;2.28;100.00;100448.13;5058242;28;20244;-78
2022/04/22 03:24:16;;;;;;;15.10;8.50;;;;;;;2.34;100.00;100442.06;5034066;28;20144;-78
2022/04/22 03:26:43;;;;;;;14.50;7.30;;;;;;;2.33;100.00;100441.19;5019832;28;20037;-78
2022/04/22 03:29:09;;;;;;;12.60;6.50;;;;;;;2.44;100.00;100434.38;5018108;28;20040;-79
2022/04/22 03:31:36;;;;;;;12.60;7.43;;;;;;;2.36;100.00;100442.97;5036555;28;20300;-79
2022/04/22 03:34:03;;;;;;;11.97;7.73;;;;;;;2.43;100.00;100439.53;5047358;28;20063;-78
2022/04/22 03:36:30;;;;;;;14.73;7.10;;;;;;;2.51;100.00;100446.56;5050964;28;20055;-78
2022/04/22 03:38:56;;;;;;;14.90;7.90;;;;;;;2.49;100.00;100447.44;5045352;28;20063;-78
2022/04/22 03:41:23;;;;;;;11.83;6.83;;;;;;;2.46;100.00;100442.19;5017767;28;20068;-79
2022/04/22 03:43:50;;;;;;;12.40;7.00;;;;;;;2.48;100.00;100454.38;5032255;28;20041;-78
2022/04/22 03:46:17;;;;;;;16.50;8.93;;;;;;;2.57;100.00;100448.38;5026432;28;20040;-78
2022/04/22 03:48:44;;;;;;;19.73;10.40;;;;;;;2.81;100.00;100448.56;5020005;28;20029;-78
2022/04/22 03:51:10;;;;;;;14.13;9.27;;;;;;;2.79;100.00;100452.03;5080191;28;20052;-78
2022/04/22 03:53:39;;;;;;;14.80;9.50;;;;;;;2.90;100.00;100447.75;5016551;28;20045;-79
2022/04/22 03:58:51;;;;;;;17.40;10.07;;;;;;;2.99;100.00;100447.81;5036570;28;20033;-79
2022/04/22 04:01:17;;;;;;;22.37;11.17;;;;;;;3.14;100.00;100428.78;5043719;28;20482;-79
2022/04/22 04:03:44;;;;;;;21.60;11.77;;;;;;;3.30;100.00;100441.06;5052071;28;20569;-79
2022/04/22 04:06:11;;;;;;;21.53;11.33;;;;;;;3.21;100.00;100443.63;5031809;28;20509;-79
2022/04/22 04:08:37;;;;;;;22.10;11.17;;;;;;;3.20;100.00;100444.50;5012535;28;20490;-79
2022/04/22 04:16:37;;;;;;;26.87;12.93;;;;;;;3.18;100.00;100435.75;5038380;28;20040;-79
2022/04/22 04:24:35;;;;;;;17.43;10.03;;;;;;;3.23;100.00;100425.34;5055699;28;20037;-79
2022/04/22 04:27:03;;;;;;;20.60;11.87;;;;;;;3.27;100.00;100430.56;5034284;28;20119;-79
2022/04/22 04:29:30;;;;;;;22.17;11.57;;;;;;;3.32;100.00;100435.84;5049819;28;20036;-79
2022/04/22 04:31:56;;;;;;;18.10;11.07;;;;;;;3.51;100.00;100444.63;5032753;28;20041;-79
2022/04/22 04:34:24;;;;;;;22.40;13.07;;;;;;;3.58;100.00;100431.59;5034305;28;20565;-79
2022/04/22 04:36:50;;;;;;;20.83;11.70;;;;;;;3.64;100.00;100444.69;5065923;28;20399;-79
2022/04/22 04:39:17;;;;;;;21.20;12.40;;;;;;;3.70;100.00;100446.47;5031516;28;20041;-78
2022/04/22 04:41:44;;;;;;;23.60;12.40;;;;;;;3.75;100.00;100449.97;5030438;28;20047;-79
2022/04/22 04:44:10;;;;;;;21.40;12.23;;;;;;;3.74;100.00;100448.22;5016817;28;20067;-78
2022/04/22 04:46:37;;;;;;;21.90;12.73;;;;;;;3.71;100.00;100449.97;5053838;28;20028;-78
2022/04/22 04:49:04;;;;;;;20.70;13.20;;;;;;;3.79;100.00;100451.75;5032289;28;20070;-78
2022/04/22 04:51:31;;;;;;;22.43;13.73;;;;;;;3.91;100.00;100450.88;5029717;28;20044;-79
2022/04/22 04:53:57;;;;;;;22.33;13.50;;;;;;;3.82;100.00;100467.41;5020341;28;20046;-79
2022/04/22 04:56:24;;;;;;;23.23;12.50;;;;;;;3.84;100.00;100462.19;5029445;28;20490;-80
2022/04/22 04:58:51;;;;;;;22.50;12.10;;;;;;;4.08;100.00;100458.78;5025274;28;20090;-78
2022/04/22 05:01:17;;;;;;;18.27;11.87;;;;;;;3.99;100.00;100464.00;5048235;28;20048;-79
2022/04/22 05:03:44;;;;;;;23.53;13.13;;;;;;;4.08;100.00;100462.28;5033470;28;20051;-78
2022/04/22 05:06:12;;;;;;;22.23;12.57;;;;;;;4.19;100.00;100462.28;5046393;28;20111;-78
2022/04/22 05:08:39;;;;;;;24.53;12.20;;;;;;;4.36;100.00;100464.94;5033701;28;20053;-78
2022/04/22 05:11:05;;;;;;;20.73;13.20;;;;;;;4.32;100.00;100457.97;5040034;28;20490;-79
2022/04/22 05:13:32;;;;;;;22.00;13.30;;;;;;;4.44;100.00;100451.00;5033079;28;20048;-79
2022/04/22 05:15:59;;;;;;;20.97;11.40;;;;;;;4.50;100.00;100452.75;5058912;28;20048;-78
2022/04/22 05:18:26;;;;;;;16.50;10.23;;;;;;;4.44;100.00;100457.97;5038555;28;20040;-78
2022/04/22 05:20:52;;;;;;;17.83;11.17;;;;;;;4.58;100.00;100458.00;5018041;28;20040;-78
2022/04/22 05:23:19;;;;;;;19.23;11.73;;;;;;;4.52;100.00;100451.88;5032457;28;20048;-78
2022/04/22 05:25:46;;;;;;;16.23;10.10;;;;;;;4.71;100.00;100454.53;5030054;28;20048;-78
2022/04/22 05:28:13;;;;;;;16.47;9.97;;;;;;;4.74;100.00;100452.75;5056389;28;20033;-78
2022/04/22 05:33:24;;;;;;;16.67;10.83;;;;;;;4.96;100.00;100440.56;5046126;28;20048;-78
2022/04/22 05:35:51;;;;;;;21.50;12.20;;;;;;;5.04;100.00;100443.13;5033269;28;20041;-78
2022/04/22 05:38:22;;;;;;;20.50;10.30;;;;;;;4.97;100.00;100430.94;5030705;28;20376;-78
2022/04/22 05:40:49;;;;;;;16.87;10.83;;;;;;;4.92;100.00;100427.44;5030563;28;20048;-77
2022/04/22 05:43:15;;;;;;;19.47;11.33;;;;;;;5.00;100.00;100430.94;5029964;28;20568;-78
2022/04/22 05:45:42;;;;;;;18.10;10.80;;;;;;;4.96;100.00;100429.19;5053934;28;20078;-78
2022/04/22 05:48:08;;;;;;;21.30;12.43;;;;;;;5.13;100.00;100445.75;5017961;28;20669;-78
2022/04/22 05:50:36;;;;;;;22.23;12.03;;;;;;;5.21;100.00;100436.16;5037874;28;20033;-78
2022/04/22 05:53:03;;;;;;;24.10;12.30;;;;;;;5.28;100.00;100429.13;5033151;28;20041;-79
2022/04/22 05:55:29;;;;;;;21.13;11.40;;;;;;;5.40;100.00;100433.47;5047299;28;20120;-78
2022/04/22 05:57:57;;;;;;;21.47;12.50;;;;;;;5.47;100.00;100443.06;5029846;28;20040;-77
2022/04/22 06:00:26;;;;;;;19.33;11.37;;;;;;;5.73;100.00;100451.69;5027747;28;20045;-77
2022/04/22 06:02:53;;;;;;;23.50;12.83;;;;;;;5.76;100.00;100453.41;5022734;28;20133;-77
2022/04/22 06:05:20;;;;;;;19.83;11.03;;;;;;;5.92;100.00;100452.50;5030825;28;20403;-78
2022/04/22 06:07:48;;;;;;;18.97;11.77;;;;;;;6.00;100.00;100466.44;5032300;28;20041;-77
2022/04/22 06:10:33;;;;;;;18.07;10.93;;;;;;;6.15;100.00;100452.41;5045850;28;20057;-78
2022/04/22 06:13:00;;;;;;;20.30;10.33;;;;;;;6.04;100.00;100462.91;5034464;28;20047;-78
2022/04/22 06:15:27;;;;;;;16.90;10.37;;;;;;;6.19;100.00;100475.09;5074061;28;21699;-78
2022/04/22 06:17:54;;;;;;;17.73;10.83;;;;;;;6.41;100.00;100465.34;5022148;28;20493;-78
2022/04/22 06:20:21;;;;;;;17.90;11.20;;;;;;;6.35;100.00;100471.50;5016377;28;20041;-79
2022/04/22 06:22:47;;;;;;;21.07;11.97;;;;;;;6.23;100.00;100468.97;5032796;28;20036;-77
2022/04/22 06:25:14;;;;;;;19.53;10.80;;;;;;;6.35;100.00;100462.75;5029451;28;20128;-77
2022/04/22 06:27:42;;;;;;;18.83;11.53;;;;;;;6.29;100.00;100463.66;5057862;28;20044;-78
2022/04/22 06:30:11;;;;;;;18.77;10.90;;;;;;;6.43;100.00;100463.56;5016780;28;20044;-77
2022/04/22 06:32:39;;;;;;;15.57;11.43;;;;;;;6.61;100.00;100466.06;5053822;28;20501;-78
2022/04/22 06:35:07;;;;;;;19.03;11.50;;;;;;;6.75;100.00;100461.59;5023830;28;20036;-79
2022/04/22 06:37:34;;;;;;;20.63;11.27;;;;;;;6.87;100.00;100463.22;5064311;28;20048;-79
2022/04/22 06:45:46;;;;;;;16.37;11.20;;;;;;;6.86;100.00;100466.75;5038691;28;20037;-79
2022/04/22 06:48:20;;;;;;;17.67;10.00;;;;;;;6.92;100.00;100481.59;5016455;28;20562;-79
2022/04/22 06:51:07;;;;;;;18.17;10.13;;;;;;;7.00;100.00;100470.13;5019192;28;20079;-79
2022/04/22 06:53:35;;;;;;;16.03;9.50;;;;;;;7.04;100.00;100463.94;5031108;28;20687;-79
2022/04/22 06:56:03;;;;;;;15.67;9.13;;;;;;;7.18;100.00;100461.19;5030669;28;20071;-79
2022/04/22 06:58:31;;;;;;;17.10;9.37;;;;;;;7.10;100.00;100447.28;5031693;28;20132;-78
2022/04/22 07:00:59;;;;;;;17.97;9.20;;;;;;;7.26;100.00;100440.09;5021519;28;20509;-78
2022/04/22 07:03:25;;;;;;;16.50;9.80;;;;;;;7.42;100.00;100435.56;5038622;28;20490;-78
2022/04/22 07:05:52;;;;;;;14.17;8.53;;;;;;;7.51;100.00;100436.31;5032016;28;20040;-78
2022/04/22 07:08:20;;;;;;;12.97;8.77;;;;;;;7.69;100.00;100434.38;5036091;28;20033;-78
2022/04/22 07:10:48;;;;;;;14.33;8.53;;;;;;;7.69;100.00;100450.13;5014819;28;20216;-78
2022/04/22 07:13:18;;;;;;;12.47;7.80;;;;;;;7.79;100.00;100455.25;5032575;28;20045;-78
2022/04/22 07:15:47;;;;;;;12.67;8.83;;;;;;;7.77;100.00;100457.03;5037120;28;20064;-78
2022/04/22 07:18:15;;;;;;;14.53;9.17;;;;;;;7.95;100.00;100449.81;5032961;28;20043;-78
2022/04/22 07:20:42;;;;;;;13.20;8.13;;;;;;;8.04;100.00;100452.31;5035861;28;20048;-78
2022/04/22 07:23:10;;;;;;;16.20;8.33;;;;;;;7.98;100.00;100444.50;5037532;28;20029;-78
2022/04/22 07:25:37;;;;;;;13.10;8.30;;;;;;;8.07;100.00;100447.00;5034701;28;20505;-81
2022/04/22 07:28:04;;;;;;;12.53;7.57;;;;;;;7.95;100.00;100458.56;5067868;28;20035;-78
2022/04/22 07:30:31;;;;;;;12.90;8.00;;;;;;;8.19;100.00;100452.97;5024422;28;20036;-79
2022/04/22 07:32:58;;;;;;;12.90;7.80;;;;;;;8.19;100.00;100454.75;5044231;28;20411;-79
2022/04/22 07:35:24;;;;;;;11.13;7.90;;;;;;;8.18;100.00;100453.88;5037517;28;20041;-79
2022/04/22 07:37:52;;;;;;;14.27;8.27;;;;;;;8.45;100.00;100449.13;5034769;28;20537;-79
2022/04/22 07:40:21;;;;;;;14.00;7.67;;;;;;;8.43;100.00;100436.00;5034085;28;20048;-80
2022/04/22 07:48:33;;;;;;;13.57;8.20;;;;;;;8.89;100.00;100437.00;5035312;28;20482;-80
2022/04/22 07:50:59;;;;;;;9.93;6.97;;;;;;;8.72;100.00;100438.16;5020913;28;20040;-79
2022/04/22 07:53:26;;;;;;;14.57;8.35;;;;;;;9.14;100.00;100440.06;5054214;28;20044;-79
2022/04/22 07:55:53;;;;;;;12.77;7.60;;;;;;;9.21;100.00;100434.66;5055169;28;20046;-80
2022/04/22 07:58:20;;;;;;;12.52;8.25;;;;;;;9.49;100.00;100442.91;5036987;28;20051;-79
2022/04/22 08:00:46;;;;;;;15.25;8.98;;;;;;;9.65;100.00;100439.97;5032174;28;20042;-78
2022/04/22 08:03:15;;;;;;;12.52;7.50;;;;;;;9.70;99.80;100436.34;5043739;28;20040;-80
2022/04/22 08:05:42;;;;;;;13.30;7.97;;;;;;;9.62;99.49;100442.69;5025520;28;20448;-80
2022/04/22 08:08:09;;;;;;;12.65;7.28;;;;;;;9.90;100.00;100432.41;5050942;28;20033;-79
2022/04/22 08:10:38;;;;;;;14.05;7.13;;;;;;;10.01;100.00;100423.38;5046251;28;20045;-78
2022/04/22 08:13:07;;;;;;;9.85;7.57;;;;;;;10.46;97.55;100432.97;5091190;28;20043;-78
2022/04/22 08:15:34;;;;;;;11.02;7.05;;;;;;;10.63;97.12;100420.22;5065507;28;20511;-79
2022/04/22 08:18:02;;;;;;;9.75;6.93;;;;;;;10.86;93.07;100407.31;5045191;28;20855;-78
2022/04/22 08:20:31;;;;;;;11.10;7.03;;;;;;;11.04;90.06;100413.88;5054917;28;20043;-78
2022/04/22 08:22:59;;;;;;;8.55;6.35;;;;;;;11.23;92.94;100407.19;5056372;28;20041;-79
2022/04/22 08:25:26;;;;;;;11.25;6.28;;;;;;;11.67;88.85;100405.06;5025135;28;20071;-79
2022/04/22 08:27:53;;;;;;;9.63;7.10;;;;;;;11.92;84.58;100413.19;5028044;28;20051;-79
2022/04/22 08:30:20;;;;;;;7.00;5.15;;;;;;;12.10;86.45;100412.63;5026874;28;20037;-79
2022/04/22 08:32:46;;;;;;;8.88;6.53;;;;;;;12.40;86.10;100413.47;5030894;28;20037;-79
2022/04/22 08:35:13;;;;;;;11.27;5.82;;;;;;;12.64;78.73;100409.16;5024857;28;20048;-79
2022/04/22 08:37:44;;;;;;;7.25;5.35;;;;;;;12.88;82.53;100407.47;5042113;28;20040;-79
2022/04/22 08:40:12;;;;;;;9.40;5.35;;;;;;;13.33;80.07;100408.59;5033021;28;20491;-79
2022/04/22 08:42:41;;;;;;;6.95;5.22;;;;;;;13.58;77.95;100416.53;5035997;28;20189;-79
2022/04/22 08:45:11;;;;;;;7.57;5.15;;;;;;;13.57;75.13;100402.41;5035550;28;20047;-79
2022/04/22 08:50:26;;;;;;;7.30;5.20;;;;;;;13.92;71.78;100392.25;5050649;28;20045;-80
2022/04/22 08:53:04;;;;;;;7.50;5.20;;;;;;;14.24;73.74;100388.34;5028928;28;20052;-80
2022/04/22 08:55:32;;;;;;;7.35;5.13;;;;;;;14.52;70.57;100390.75;5022969;28;20517;-78
2022/04/22 08:58:05;;;;;;;6.88;4.57;;;;;;;14.44;71.36;100393.69;5047500;28;20494;-80
2022/04/22 09:00:36;;;;;;;10.30;5.47;;;;;;;14.64;68.95;100393.81;5030640;28;20048;-79
2022/04/22 09:03:03;;;;;;;11.27;5.03;;;;;;;14.74;67.86;100382.78;5044877;28;20661;-78
2022/04/22 09:05:31;;;;;;;11.80;6.35;;;;;;;14.71;69.46;100380.22;5047051;28;20544;-78
2022/04/22 09:07:59;;;;;;;6.60;4.90;;;;;;;14.94;68.79;100385.44;5033270;28;20041;-79
2022/04/22 09:10:25;;;;;;;10.65;5.50;;;;;;;14.99;67.17;100379.94;5073186;28;20037;-79
2022/04/22 09:12:54;;;;;;;11.48;5.35;;;;;;;14.91;65.54;100382.94;5065226;28;20052;-80
2022/04/22 09:15:23;;;;;;;5.88;4.80;;;;;;;14.83;66.53;100385.03;5016797;28;20465;-79
2022/04/22 09:17:50;;;;;;;6.57;5.25;;;;;;;15.13;65.72;100383.75;5023444;28;20046;-78
2022/04/22 09:20:16;;;;;;;6.28;4.25;;;;;;;15.28;65.44;100381.31;5027417;28;20044;-79
2022/04/22 09:22:44;;;;;;;7.18;5.00;;;;;;;15.57;62.72;100380.03;5033505;28;20429;-79
2022/04/22 09:25:11;;;;;;;6.60;4.72;;;;;;;15.52;61.45;100374.91;5011192;28;20041;-79
2022/04/22 09:27:41;;;;;;;13.07;5.00;;;;;;;16.01;63.82;100370.84;5048753;28;20033;-80
2022/04/22 09:30:11;;;;;;;68.47;9.85;;;;;;;16.29;62.66;100369.53;5059371;28;20040;-79
2022/04/22 09:32:40;;;;;;;6.50;4.93;;;;;;;16.43;60.43;100371.53;5029616;28;20032;-79
2022/04/22 09:35:07;;;;;;;6.72;4.63;;;;;;;16.11;60.23;100381.94;5045902;28;20224;-79
2022/04/22 09:43:39;;;;;;;6.93;4.95;;;;;;;16.33;60.49;100350.66;5033552;28;20040;-79
2022/04/22 09:46:30;;;;;;;9.15;4.97;;;;;;;16.25;59.08;100355.50;5036620;28;20032;-79
2022/04/22 09:48:59;;;;;;;6.47;4.47;;;;;;;16.56;57.27;100344.19;5031043;28;20037;-80
2022/04/22 09:51:27;;;;;;;5.30;4.03;;;;;;;16.65;59.75;100347.31;5051557;28;20041;-79
2022/04/22 09:54:21;;;;;;;6.45;5.35;;;;;;;16.85;55.78;100345.41;5063620;28;20048;-79
2022/04/22 09:56:57;;;;;;;6.78;5.03;;;;;;;16.93;54.77;100347.66;5026311;28;20093;-80
2022/04/22 09:59:26;;;;;;;5.07;4.38;;;;;;;16.41;55.21;100360.09;5046050;28;20037;-80
2022/04/22 10:01:52;;;;;;;5.90;4.72;;;;;;;15.86;56.84;100376.91;5028921;28;20037;-80
2022/04/22 10:04:33;;;;;;;5.97;5.20;;;;;;;15.71;58.70;100366.94;5033982;28;20056;-79
2022/04/22 10:07:02;;;;;;;6.65;5.35;;;;;;;15.51;59.32;100349.22;5034914;28;20043;-79
2022/04/22 10:09:29;;;;;;;5.82;5.10;;;;;;;15.76;60.44;100360.50;5017692;28;20037;-79
2022/04/22 10:11:57;;;;;;;9.00;5.28;;;;;;;15.60;60.39;100363.91;5016344;28;20037;-79
2022/04/22 10:14:35;;;;;;;8.82;5.88;;;;;;;14.86;61.43;100372.47;5030859;28;20052;-79
2022/04/22 10:17:04;;;;;;;7.75;6.40;;;;;;;14.57;61.97;100373.72;5033205;28;20052;-79
2022/04/22 10:19:34;;;;;;;6.97;5.82;;;;;;;14.94;63.79;100369.47;5014080;28;20060;-79
2022/04/22 10:22:03;;;;;;;6.90;5.72;;;;;;;15.04;61.76;100368.16;5016132;28;20037;-80
2022/04/22 10:24:33;;;;;;;8.07;5.60;;;;;;;14.74;63.43;100366.81;5028338;28;20033;-80
2022/04/22 10:27:02;;;;;;;6.65;5.50;;;;;;;14.81;62.24;100357.66;5062489;28;20045;-79
2022/04/22 10:29:48;;;;;;;6.55;5.22;;;;;;;15.00;61.22;100357.72;5046848;28;20504;-80
2022/04/22 10:32:15;;;;;;;6.82;4.68;;;;;;;15.09;62.48;100368.81;5028695;28;20483;-80
2022/04/22 10:34:46;;;;;;;8.25;4.88;;;;;;;14.96;60.82;100366.75;5042817;28;20041;-81
2022/04/22 10:37:22;;;;;;;13.75;5.43;;;;;;;14.80;61.19;100361.25;5059994;28;20041;-80
2022/04/22 18:09:49;;;;;;;15.25;10.68;;;;;;;10.08;100.00;100427.59;5081100;27;20360;-80
2022/04/22 18:12:16;;;;;;;13.07;9.00;;;;;;;9.71;100.00;100440.72;5039953;28;20490;-79
2022/04/22 18:17:28;;;;;;;10.40;7.60;;;;;;;9.74;95.99;100435.38;5024811;28;20044;-79
2022/04/22 18:19:55;;;;;;;8.52;6.82;;;;;;;9.74;93.82;100445.06;5024567;28;20068;-80
2022/04/22 18:22:21;;;;;;;9.02;7.32;;;;;;;9.78;92.43;100446.75;5024389;28;20442;-81
2022/04/22 18:24:48;;;;;;;8.35;7.07;;;;;;;9.66;93.25;100450.50;5007827;28;20049;-79
2022/04/22 18:27:18;;;;;;;9.60;8.00;;;;;;;9.63;92.30;100453.19;5039714;28;20038;-79
2022/04/22 18:29:46;;;;;;;8.30;6.97;;;;;;;9.57;92.66;100450.69;5021156;28;20046;-79
2022/04/22 18:32:14;;;;;;;7.93;6.60;;;;;;;9.39;93.76;100449.25;5024946;28;20383;-78
2022/04/22 18:34:40;;;;;;;7.45;6.50;;;;;;;9.22;94.80;100454.84;5028404;28;20558;-78
2022/04/22 18:37:07;;;;;;;7.95;6.57;;;;;;;9.09;95.79;100456.00;5040612;28;20099;-79
2022/04/22 18:39:34;;;;;;;8.73;7.07;;;;;;;8.98;96.66;100458.78;5033733;28;20044;-80
2022/04/22 18:42:01;;;;;;;7.72;6.40;;;;;;;8.85;97.97;100473.06;5011064;28;20049;-79
2022/04/22 18:44:28;;;;;;;9.23;7.85;;;;;;;8.92;97.68;100472.09;5022692;28;20065;-81
2022/04/22 18:46:55;;;;;;;8.85;7.95;;;;;;;9.00;96.52;100469.31;5006976;28;20049;-81
2022/04/22 18:49:22;;;;;;;10.20;8.63;;;;;;;8.94;95.37;100465.03;5024980;28;20045;-81
2022/04/22 18:51:48;;;;;;;9.88;8.00;;;;;;;8.82;96.69;100478.38;5004137;28;20120;-82
2022/04/22 18:54:15;;;;;;;7.97;7.00;;;;;;;8.56;98.43;100480.56;5036287;28;20056;-81
2022/04/22 18:56:45;;;;;;;9.43;7.10;;;;;;;8.36;100.00;100475.59;5005018;28;20052;-80
2022/04/22 18:59:12;;;;;;;9.35;7.72;;;;;;;8.36;100.00;100472.97;5019362;28;20037;-79
2022/04/22 19:01:38;;;;;;;8.67;7.40;;;;;;;8.28;100.00;100488.81;5022881;28;20510;-81
2022/04/22 19:04:05;;;;;;;9.63;7.73;;;;;;;8.13;100.00;100484.63;5001142;28;20034;-80
2022/04/22 19:06:32;;;;;;;9.53;7.50;;;;;;;8.03;100.00;100482.16;5023886;28;20056;-80
2022/04/22 19:08:58;;;;;;;9.43;7.55;;;;;;;8.07;100.00;100486.47;5020998;28;20045;-81
2022/04/22 19:11:25;;;;;;;10.27;8.07;;;;;;;8.13;100.00;100489.03;5020448;28;20052;-83
2022/04/22 19:13:52;;;;;;;9.57;7.70;;;;;;;7.94;100.00;100485.75;5019652;28;20053;-81
2022/04/22 19:16:19;;;;;;;11.43;8.33;;;;;;;7.76;100.00;100493.88;5024480;28;20049;-82
2022/04/22 19:18:45;;;;;;;10.30;7.93;;;;;;;7.64;100.00;100484.34;5020611;28;20040;-80
2022/04/22 19:21:12;;;;;;;8.23;7.13;;;;;;;7.50;100.00;100495.03;5022475;28;20051;-80
2022/04/22 19:23:39;;;;;;;11.03;7.53;;;;;;;7.49;100.00;100495.06;5002295;28;20395;-81
2022/04/22 19:26:05;;;;;;;10.43;8.37;;;;;;;7.52;100.00;100490.63;4994597;28;20155;-82
2022/04/22 19:28:32;;;;;;;11.13;8.50;;;;;;;7.44;100.00;100492.47;4992079;28;20049;-79
2022/04/22 19:30:59;;;;;;;12.07;8.57;;;;;;;7.22;100.00;100502.31;5010519;28;20087;-81
2022/04/22 19:33:26;;;;;;;10.47;7.60;;;;;;;7.26;100.00;100492.66;5006926;28;20047;-81
2022/04/22 19:35:52;;;;;;;10.83;8.53;;;;;;;7.14;100.00;100493.63;5006695;28;20059;-80
2022/04/22 19:41:04;;;;;;;10.03;7.53;;;;;;;6.90;100.00;100488.63;5011884;28;20096;-81
2022/04/22 19:43:31;;;;;;;9.87;7.87;;;;;;;6.86;100.00;100500.00;4990574;28;20529;-82
2022/04/22 19:46:02;;;;;;;9.50;7.83;;;;;;;6.65;100.00;100499.31;5038646;28;20132;-82
2022/04/22 19:48:30;;;;;;;9.93;7.63;;;;;;;6.57;100.00;100500.25;5019924;28;20037;-78